sensor_id;sensor_type;location;lat;lon;timestamp;temperature;humidity
29211;DHT22;16250;49.932;10.980;2022-12-10T00:02:19;-2.60;99.90
29211;DHT22;16250;49.932;10.980;2022-12-10T00:04:45;-2.60;99.90
29211;DHT22;16250;49.932;10.980;2022-12-10T00:07:10;-2.60;99.90
29211;DHT22;16250;49.932;10.980;2022-12-10T00:09:36;-2.60;99.90
29211;DHT22;16250;49.932;10.980;2022-12-10T00:12:01;-2.60;99.90
29211;DHT22;16250;49.932;10.980;2022-12-10T00:14:27;-2.70;99.90
29211;DHT22;16250;49.932;10.980;2022-12-10T00:16:52;-3.20;99.90
29211;DHT22;16250;49.932;10.980;2022-12-10T00:19:18;-3.30;99.90
29211;DHT22;16250;49.932;10.980;2022-12-10T00:21:44;-3.20;99.90
29211;DHT22;16250;49.932;10.980;2022-12-10T00:24:10;-3.10;99.90
29211;DHT22;16250;49.932;10.980;2022-12-10T00:26:37;-3.00;99.90
29211;DHT22;16250;49.932;10.980;2022-12-10T00:29:05;-3.00;99.90
29211;DHT22;16250;49.932;10.980;2022-12-10T00:31:34;-3.10;99.90
29211;DHT22;16250;49.932;10.980;2022-12-10T00:34:02;-3.30;99.90
29211;DHT22;16250;49.932;10.980;2022-12-10T00:36:31;-3.30;99.90
29211;DHT22;16250;49.932;10.980;2022-12-10T00:38:57;-3.20;99.90
29211;DHT22;16250;49.932;10.980;2022-12-10T00:41:23;-3.40;99.90
29211;DHT22;16250;49.932;10.980;2022-12-10T00:43:49;-3.30;99.90
29211;DHT22;16250;49.932;10.980;2022-12-10T00:46:16;-3.20;99.90
29211;DHT22;16250;49.932;10.980;2022-12-10T00:48:42;-3.10;99.90
29211;DHT22;16250;49.932;10.980;2022-12-10T00:51:14;-3.10;99.90
29211;DHT22;16250;49.932;10.980;2022-12-10T00:53:41;-3.00;99.90
29211;DHT22;16250;49.932;10.980;2022-12-10T00:56:12;-2.90;99.90
29211;DHT22;16250;49.932;10.980;2022-12-10T00:58:38;-2.80;99.90
29211;DHT22;16250;49.932;10.980;2022-12-10T01:03:38;-2.80;99.90
29211;DHT22;16250;49.932;10.980;2022-12-10T01:06:17;-2.70;99.90
29211;DHT22;16250;49.932;10.980;2022-12-10T01:08:43;-2.70;99.90
29211;DHT22;16250;49.932;10.980;2022-12-10T01:11:10;-2.60;99.90
29211;DHT22;16250;49.932;10.980;2022-12-10T01:13:37;-2.60;99.90
29211;DHT22;16250;49.932;10.980;2022-12-10T01:16:04;-2.70;99.90
29211;DHT22;16250;49.932;10.980;2022-12-10T01:18:31;-2.70;99.90
29211;DHT22;16250;49.932;10.980;2022-12-10T01:21:03;-2.60;99.90
29211;DHT22;16250;49.932;10.980;2022-12-10T01:23:35;-2.50;99.90
29211;DHT22;16250;49.932;10.980;2022-12-10T01:26:02;-2.50;99.90
29211;DHT22;16250;49.932;10.980;2022-12-10T01:28:33;-2.50;99.90
29211;DHT22;16250;49.932;10.980;2022-12-10T01:31:04;-2.50;99.90
29211;DHT22;16250;49.932;10.980;2022-12-10T01:33:31;-2.40;99.90
29211;DHT22;16250;49.932;10.980;2022-12-10T01:36:05;-2.30;99.90
29211;DHT22;16250;49.932;10.980;2022-12-10T01:38:31;-2.30;99.90
29211;DHT22;16250;49.932;10.980;2022-12-10T01:40:58;-2.30;99.90
29211;DHT22;16250;49.932;10.980;2022-12-10T01:43:23;-2.20;99.90
29211;DHT22;16250;49.932;10.980;2022-12-10T01:45:49;-2.10;99.90
29211;DHT22;16250;49.932;10.980;2022-12-10T01:48:14;-2.00;99.90
29211;DHT22;16250;49.932;10.980;2022-12-10T01:50:40;-2.10;99.90
29211;DHT22;16250;49.932;10.980;2022-12-10T01:53:06;-2.10;99.90
29211;DHT22;16250;49.932;10.980;2022-12-10T01:55:44;-2.10;99.90
29211;DHT22;16250;49.932;10.980;2022-12-10T01:58:11;-2.00;99.90
29211;DHT22;16250;49.932;10.980;2022-12-10T02:00:44;-2.00;99.90
29211;DHT22;16250;49.932;10.980;2022-12-10T02:03:19;-2.00;99.90
29211;DHT22;16250;49.932;10.980;2022-12-10T02:06:01;-2.10;99.90
29211;DHT22;16250;49.932;10.980;2022-12-10T02:08:38;-2.10;99.90
29211;DHT22;16250;49.932;10.980;2022-12-10T02:14:28;-1.90;99.90
29211;DHT22;16250;49.932;10.980;2022-12-10T02:16:58;-1.90;99.90
29211;DHT22;16250;49.932;10.980;2022-12-10T02:21:54;-1.90;99.90
29211;DHT22;16250;49.932;10.980;2022-12-10T02:24:28;-1.90;99.90
29211;DHT22;16250;49.932;10.980;2022-12-10T02:30:04;-2.20;99.90
29211;DHT22;16250;49.932;10.980;2022-12-10T02:32:33;-2.20;99.90
29211;DHT22;16250;49.932;10.980;2022-12-10T02:35:03;-2.10;99.90
29211;DHT22;16250;49.932;10.980;2022-12-10T02:38:15;-2.10;99.90
29211;DHT22;16250;49.932;10.980;2022-12-10T02:40:24;-2.20;99.90
29211;DHT22;16250;49.932;10.980;2022-12-10T02:42:52;-2.10;99.90
29211;DHT22;16250;49.932;10.980;2022-12-10T02:45:20;-1.90;99.90
29211;DHT22;16250;49.932;10.980;2022-12-10T02:47:47;-1.90;99.90
29211;DHT22;16250;49.932;10.980;2022-12-10T02:50:15;-1.80;99.90
29211;DHT22;16250;49.932;10.980;2022-12-10T02:52:41;-1.80;99.90
29211;DHT22;16250;49.932;10.980;2022-12-10T02:55:11;-1.90;99.90
29211;DHT22;16250;49.932;10.980;2022-12-10T02:57:40;-2.00;99.90
29211;DHT22;16250;49.932;10.980;2022-12-10T03:00:11;-2.10;99.90
29211;DHT22;16250;49.932;10.980;2022-12-10T03:02:57;-2.00;99.90
29211;DHT22;16250;49.932;10.980;2022-12-10T03:08:41;-1.80;99.90
29211;DHT22;16250;49.932;10.980;2022-12-10T03:11:12;-1.90;99.90
29211;DHT22;16250;49.932;10.980;2022-12-10T03:16:40;-2.00;99.90
29211;DHT22;16250;49.932;10.980;2022-12-10T03:19:11;-2.10;99.90
29211;DHT22;16250;49.932;10.980;2022-12-10T03:21:40;-2.10;99.90
29211;DHT22;16250;49.932;10.980;2022-12-10T03:24:07;-2.10;99.90
29211;DHT22;16250;49.932;10.980;2022-12-10T03:26:33;-2.10;99.90
29211;DHT22;16250;49.932;10.980;2022-12-10T03:29:04;-2.00;99.90
29211;DHT22;16250;49.932;10.980;2022-12-10T03:31:34;-1.90;99.90
29211;DHT22;16250;49.932;10.980;2022-12-10T03:34:01;-2.00;99.90
29211;DHT22;16250;49.932;10.980;2022-12-10T03:36:27;-2.00;99.90
29211;DHT22;16250;49.932;10.980;2022-12-10T03:38:54;-2.00;99.90
29211;DHT22;16250;49.932;10.980;2022-12-10T03:41:20;-1.80;99.90
29211;DHT22;16250;49.932;10.980;2022-12-10T03:43:57;-1.80;99.90
29211;DHT22;16250;49.932;10.980;2022-12-10T03:46:24;-1.90;99.90
29211;DHT22;16250;49.932;10.980;2022-12-10T03:48:51;-1.90;99.90
29211;DHT22;16250;49.932;10.980;2022-12-10T03:51:17;-2.00;99.90
29211;DHT22;16250;49.932;10.980;2022-12-10T03:53:42;-2.00;99.90
29211;DHT22;16250;49.932;10.980;2022-12-10T03:56:08;-1.90;99.90
29211;DHT22;16250;49.932;10.980;2022-12-10T03:58:34;-1.90;99.90
29211;DHT22;16250;49.932;10.980;2022-12-10T04:00:59;-1.90;99.90
29211;DHT22;16250;49.932;10.980;2022-12-10T04:03:25;-1.90;99.90
29211;DHT22;16250;49.932;10.980;2022-12-10T04:05:50;-1.80;99.90
29211;DHT22;16250;49.932;10.980;2022-12-10T04:08:16;-1.70;99.90
29211;DHT22;16250;49.932;10.980;2022-12-10T04:10:41;-1.80;99.90
29211;DHT22;16250;49.932;10.980;2022-12-10T04:13:07;-1.70;99.90
29211;DHT22;16250;49.932;10.980;2022-12-10T04:15:51;-1.60;99.90
29211;DHT22;16250;49.932;10.980;2022-12-10T04:18:35;-1.60;99.90
29211;DHT22;16250;49.932;10.980;2022-12-10T04:21:01;-1.60;99.90
29211;DHT22;16250;49.932;10.980;2022-12-10T04:23:45;-1.60;99.90
29211;DHT22;16250;49.932;10.980;2022-12-10T04:26:29;-1.70;99.90
29211;DHT22;16250;49.932;10.980;2022-12-10T04:29:13;-1.70;99.90
29211;DHT22;16250;49.932;10.980;2022-12-10T04:31:38;-1.70;99.90
29211;DHT22;16250;49.932;10.980;2022-12-10T04:34:04;-1.70;99.90
29211;DHT22;16250;49.932;10.980;2022-12-10T04:36:29;-1.70;99.90
29211;DHT22;16250;49.932;10.980;2022-12-10T04:38:55;-1.80;99.90
29211;DHT22;16250;49.932;10.980;2022-12-10T04:41:20;-1.70;99.90
29211;DHT22;16250;49.932;10.980;2022-12-10T04:43:46;-1.70;99.90
29211;DHT22;16250;49.932;10.980;2022-12-10T04:46:11;-1.60;99.90
29211;DHT22;16250;49.932;10.980;2022-12-10T04:48:37;-1.60;99.90
29211;DHT22;16250;49.932;10.980;2022-12-10T04:51:03;-1.70;99.90
29211;DHT22;16250;49.932;10.980;2022-12-10T04:53:29;-1.70;99.90
29211;DHT22;16250;49.932;10.980;2022-12-10T04:55:55;-1.70;99.90
29211;DHT22;16250;49.932;10.980;2022-12-10T04:58:20;-1.70;99.90
29211;DHT22;16250;49.932;10.980;2022-12-10T05:00:46;-1.70;99.90
29211;DHT22;16250;49.932;10.980;2022-12-10T05:03:11;-1.80;99.90
29211;DHT22;16250;49.932;10.980;2022-12-10T05:05:37;-1.80;99.90
29211;DHT22;16250;49.932;10.980;2022-12-10T05:08:02;-1.80;99.90
29211;DHT22;16250;49.932;10.980;2022-12-10T05:10:29;-1.70;99.90
29211;DHT22;16250;49.932;10.980;2022-12-10T05:12:55;-1.60;99.90
29211;DHT22;16250;49.932;10.980;2022-12-10T05:15:21;-1.70;99.90
29211;DHT22;16250;49.932;10.980;2022-12-10T05:17:46;-1.70;99.90
29211;DHT22;16250;49.932;10.980;2022-12-10T05:20:12;-1.70;99.90
29211;DHT22;16250;49.932;10.980;2022-12-10T05:22:37;-1.70;99.90
29211;DHT22;16250;49.932;10.980;2022-12-10T05:25:22;-1.70;99.90
29211;DHT22;16250;49.932;10.980;2022-12-10T05:27:47;-1.60;99.90
29211;DHT22;16250;49.932;10.980;2022-12-10T05:30:13;-1.60;99.90
29211;DHT22;16250;49.932;10.980;2022-12-10T05:32:38;-1.60;99.90
29211;DHT22;16250;49.932;10.980;2022-12-10T05:35:05;-1.60;99.90
29211;DHT22;16250;49.932;10.980;2022-12-10T05:37:30;-1.60;99.90
29211;DHT22;16250;49.932;10.980;2022-12-10T05:39:56;-1.60;99.90
29211;DHT22;16250;49.932;10.980;2022-12-10T05:42:21;-1.60;99.90
29211;DHT22;16250;49.932;10.980;2022-12-10T05:44:47;-1.60;99.90
29211;DHT22;16250;49.932;10.980;2022-12-10T05:47:12;-1.60;99.90
29211;DHT22;16250;49.932;10.980;2022-12-10T05:49:38;-1.70;99.90
29211;DHT22;16250;49.932;10.980;2022-12-10T05:52:04;-1.60;99.90
29211;DHT22;16250;49.932;10.980;2022-12-10T05:54:29;-1.60;99.90
29211;DHT22;16250;49.932;10.980;2022-12-10T05:56:55;-1.70;99.90
29211;DHT22;16250;49.932;10.980;2022-12-10T05:59:20;-1.70;99.90
29211;DHT22;16250;49.932;10.980;2022-12-10T06:01:46;-1.60;99.90
29211;DHT22;16250;49.932;10.980;2022-12-10T06:04:12;-1.70;99.90
29211;DHT22;16250;49.932;10.980;2022-12-10T06:06:39;-1.70;99.90
29211;DHT22;16250;49.932;10.980;2022-12-10T06:09:06;-1.80;99.90
29211;DHT22;16250;49.932;10.980;2022-12-10T06:11:32;-1.80;99.90
29211;DHT22;16250;49.932;10.980;2022-12-10T06:13:58;-1.70;99.90
29211;DHT22;16250;49.932;10.980;2022-12-10T06:16:25;-1.70;99.90
29211;DHT22;16250;49.932;10.980;2022-12-10T06:18:51;-1.70;99.90
29211;DHT22;16250;49.932;10.980;2022-12-10T06:21:18;-1.70;99.90
29211;DHT22;16250;49.932;10.980;2022-12-10T06:23:44;-1.70;99.90
29211;DHT22;16250;49.932;10.980;2022-12-10T06:26:14;-1.70;99.90
29211;DHT22;16250;49.932;10.980;2022-12-10T06:28:40;-1.70;99.90
29211;DHT22;16250;49.932;10.980;2022-12-10T06:31:06;-1.70;99.90
29211;DHT22;16250;49.932;10.980;2022-12-10T06:33:32;-1.70;99.90
29211;DHT22;16250;49.932;10.980;2022-12-10T06:35:57;-1.60;99.90
29211;DHT22;16250;49.932;10.980;2022-12-10T06:38:23;-1.50;99.90
29211;DHT22;16250;49.932;10.980;2022-12-10T06:40:49;-1.50;99.90
29211;DHT22;16250;49.932;10.980;2022-12-10T06:43:15;-1.50;99.90
29211;DHT22;16250;49.932;10.980;2022-12-10T06:45:41;-1.60;99.90
29211;DHT22;16250;49.932;10.980;2022-12-10T06:48:08;-1.70;99.90
29211;DHT22;16250;49.932;10.980;2022-12-10T06:50:34;-1.60;99.90
29211;DHT22;16250;49.932;10.980;2022-12-10T06:52:59;-1.60;99.90
29211;DHT22;16250;49.932;10.980;2022-12-10T06:55:25;-1.50;99.90
29211;DHT22;16250;49.932;10.980;2022-12-10T06:57:51;-1.40;99.90
29211;DHT22;16250;49.932;10.980;2022-12-10T07:00:18;-1.50;99.90
29211;DHT22;16250;49.932;10.980;2022-12-10T07:02:43;-1.50;99.90
29211;DHT22;16250;49.932;10.980;2022-12-10T07:05:09;-1.50;99.90
29211;DHT22;16250;49.932;10.980;2022-12-10T07:07:35;-1.40;99.90
29211;DHT22;16250;49.932;10.980;2022-12-10T07:10:01;-1.30;99.90
29211;DHT22;16250;49.932;10.980;2022-12-10T07:12:27;-1.40;99.90
29211;DHT22;16250;49.932;10.980;2022-12-10T07:14:52;-1.40;99.90
29211;DHT22;16250;49.932;10.980;2022-12-10T07:17:18;-1.40;99.90
29211;DHT22;16250;49.932;10.980;2022-12-10T07:19:44;-1.40;99.90
29211;DHT22;16250;49.932;10.980;2022-12-10T07:22:09;-1.40;99.90
29211;DHT22;16250;49.932;10.980;2022-12-10T07:24:35;-1.50;99.90
29211;DHT22;16250;49.932;10.980;2022-12-10T07:27:03;-1.40;99.90
29211;DHT22;16250;49.932;10.980;2022-12-10T07:29:30;-1.50;99.90
29211;DHT22;16250;49.932;10.980;2022-12-10T07:31:56;-1.50;99.90
29211;DHT22;16250;49.932;10.980;2022-12-10T07:34:21;-1.40;99.90
29211;DHT22;16250;49.932;10.980;2022-12-10T07:36:47;-1.30;99.90
29211;DHT22;16250;49.932;10.980;2022-12-10T07:39:13;-1.30;99.90
29211;DHT22;16250;49.932;10.980;2022-12-10T07:41:49;-1.30;99.90
29211;DHT22;16250;49.932;10.980;2022-12-10T07:44:23;-1.30;99.90
29211;DHT22;16250;49.932;10.980;2022-12-10T07:46:51;-1.20;99.90
29211;DHT22;16250;49.932;10.980;2022-12-10T07:49:17;-1.30;99.90
29211;DHT22;16250;49.932;10.980;2022-12-10T07:51:46;-1.40;99.90
29211;DHT22;16250;49.932;10.980;2022-12-10T07:54:13;-1.40;99.90
29211;DHT22;16250;49.932;10.980;2022-12-10T07:56:38;-1.40;99.90
29211;DHT22;16250;49.932;10.980;2022-12-10T07:59:04;-1.40;99.90
29211;DHT22;16250;49.932;10.980;2022-12-10T08:01:29;-1.40;99.90
29211;DHT22;16250;49.932;10.980;2022-12-10T08:03:56;-1.20;99.90
29211;DHT22;16250;49.932;10.980;2022-12-10T08:06:23;-1.20;99.90
29211;DHT22;16250;49.932;10.980;2022-12-10T08:08:49;-1.30;99.90
29211;DHT22;16250;49.932;10.980;2022-12-10T08:11:16;-1.40;99.90
29211;DHT22;16250;49.932;10.980;2022-12-10T08:13:43;-1.30;99.90
29211;DHT22;16250;49.932;10.980;2022-12-10T08:16:19;-1.20;99.90
29211;DHT22;16250;49.932;10.980;2022-12-10T08:18:45;-1.10;99.90
29211;DHT22;16250;49.932;10.980;2022-12-10T08:21:14;-1.10;99.90
29211;DHT22;16250;49.932;10.980;2022-12-10T08:23:40;-1.30;99.90
29211;DHT22;16250;49.932;10.980;2022-12-10T08:26:08;-1.30;99.90
29211;DHT22;16250;49.932;10.980;2022-12-10T08:28:35;-1.20;99.90
29211;DHT22;16250;49.932;10.980;2022-12-10T08:31:01;-1.30;99.90
29211;DHT22;16250;49.932;10.980;2022-12-10T08:33:26;-1.30;99.90
29211;DHT22;16250;49.932;10.980;2022-12-10T08:35:52;-1.30;99.90
29211;DHT22;16250;49.932;10.980;2022-12-10T08:38:17;-1.30;99.90
29211;DHT22;16250;49.932;10.980;2022-12-10T08:40:43;-1.20;99.90
29211;DHT22;16250;49.932;10.980;2022-12-10T08:43:09;-1.00;99.90
29211;DHT22;16250;49.932;10.980;2022-12-10T08:45:35;-0.90;99.90
29211;DHT22;16250;49.932;10.980;2022-12-10T08:48:02;-0.90;99.90
29211;DHT22;16250;49.932;10.980;2022-12-10T08:50:27;-0.90;99.90
29211;DHT22;16250;49.932;10.980;2022-12-10T08:52:53;-0.90;99.90
29211;DHT22;16250;49.932;10.980;2022-12-10T08:55:18;-0.90;99.90
29211;DHT22;16250;49.932;10.980;2022-12-10T08:57:44;-1.00;99.90
29211;DHT22;16250;49.932;10.980;2022-12-10T09:00:10;-0.80;99.90
29211;DHT22;16250;49.932;10.980;2022-12-10T09:02:37;-0.70;99.90
29211;DHT22;16250;49.932;10.980;2022-12-10T09:05:03;-0.80;99.90
29211;DHT22;16250;49.932;10.980;2022-12-10T09:07:28;-0.70;99.90
29211;DHT22;16250;49.932;10.980;2022-12-10T09:09:54;-0.70;99.90
29211;DHT22;16250;49.932;10.980;2022-12-10T09:12:20;-0.70;99.90
29211;DHT22;16250;49.932;10.980;2022-12-10T09:14:45;-0.60;99.90
29211;DHT22;16250;49.932;10.980;2022-12-10T09:17:11;-0.60;99.90
29211;DHT22;16250;49.932;10.980;2022-12-10T09:19:36;-0.50;99.90
29211;DHT22;16250;49.932;10.980;2022-12-10T09:22:02;-0.50;99.90
29211;DHT22;16250;49.932;10.980;2022-12-10T09:24:28;-0.60;99.90
29211;DHT22;16250;49.932;10.980;2022-12-10T09:26:54;-0.50;99.90
29211;DHT22;16250;49.932;10.980;2022-12-10T09:29:20;-0.50;99.90
29211;DHT22;16250;49.932;10.980;2022-12-10T09:31:50;-0.40;99.90
29211;DHT22;16250;49.932;10.980;2022-12-10T09:34:16;-0.40;99.90
29211;DHT22;16250;49.932;10.980;2022-12-10T09:36:41;-0.20;99.90
29211;DHT22;16250;49.932;10.980;2022-12-10T09:39:07;-0.20;99.90
29211;DHT22;16250;49.932;10.980;2022-12-10T09:47:01;0.10;99.90
29211;DHT22;16250;49.932;10.980;2022-12-10T09:52:15;0.20;99.90
29211;DHT22;16250;49.932;10.980;2022-12-10T09:54:45;0.20;99.90
29211;DHT22;16250;49.932;10.980;2022-12-10T09:57:31;0.30;99.90
29211;DHT22;16250;49.932;10.980;2022-12-10T10:00:05;0.20;99.90
29211;DHT22;16250;49.932;10.980;2022-12-10T10:02:32;0.10;99.90
29211;DHT22;16250;49.932;10.980;2022-12-10T10:07:41;-0.10;99.90
29211;DHT22;16250;49.932;10.980;2022-12-10T10:12:47;-0.30;99.90
29211;DHT22;16250;49.932;10.980;2022-12-10T10:15:16;-0.40;99.90
29211;DHT22;16250;49.932;10.980;2022-12-10T10:17:43;-0.40;99.90
29211;DHT22;16250;49.932;10.980;2022-12-10T10:20:12;-0.50;99.90
29211;DHT22;16250;49.932;10.980;2022-12-10T10:22:39;-0.40;99.90
29211;DHT22;16250;49.932;10.980;2022-12-10T10:25:09;-0.40;99.90
29211;DHT22;16250;49.932;10.980;2022-12-10T10:27:38;-0.40;99.90
29211;DHT22;16250;49.932;10.980;2022-12-10T10:30:06;-0.40;99.90
29211;DHT22;16250;49.932;10.980;2022-12-10T10:35:01;-0.30;99.90
29211;DHT22;16250;49.932;10.980;2022-12-10T10:40:02;-0.10;99.90
29211;DHT22;16250;49.932;10.980;2022-12-10T10:42:40;0.00;99.90
29211;DHT22;16250;49.932;10.980;2022-12-10T10:45:32;0.10;99.90
29211;DHT22;16250;49.932;10.980;2022-12-10T10:48:14;0.10;99.90
29211;DHT22;16250;49.932;10.980;2022-12-10T10:53:50;0.00;99.90
29211;DHT22;16250;49.932;10.980;2022-12-10T10:56:25;0.20;99.90
29211;DHT22;16250;49.932;10.980;2022-12-10T11:01:49;0.30;99.90
29211;DHT22;16250;49.932;10.980;2022-12-10T11:04:16;0.30;99.90
29211;DHT22;16250;49.932;10.980;2022-12-10T11:06:43;0.30;99.90
29211;DHT22;16250;49.932;10.980;2022-12-10T11:09:22;0.40;99.90
29211;DHT22;16250;49.932;10.980;2022-12-10T11:11:52;0.50;99.90
29211;DHT22;16250;49.932;10.980;2022-12-10T11:14:31;0.60;99.90
29211;DHT22;16250;49.932;10.980;2022-12-10T11:19:38;0.80;99.90
29211;DHT22;16250;49.932;10.980;2022-12-10T11:22:36;0.80;99.90
29211;DHT22;16250;49.932;10.980;2022-12-10T11:25:05;0.90;99.90
29211;DHT22;16250;49.932;10.980;2022-12-10T11:30:24;1.10;99.90
29211;DHT22;16250;49.932;10.980;2022-12-10T11:35:59;1.10;99.90
29211;DHT22;16250;49.932;10.980;2022-12-10T11:41:35;1.10;99.90
29211;DHT22;16250;49.932;10.980;2022-12-10T11:44:13;1.20;99.90
29211;DHT22;16250;49.932;10.980;2022-12-10T11:49:51;1.10;99.90
29211;DHT22;16250;49.932;10.980;2022-12-10T11:52:25;1.20;99.90
29211;DHT22;16250;49.932;10.980;2022-12-10T11:55:21;1.20;99.90
29211;DHT22;16250;49.932;10.980;2022-12-10T12:00:27;1.30;99.90
29211;DHT22;16250;49.932;10.980;2022-12-10T12:09:27;1.10;99.90
29211;DHT22;16250;49.932;10.980;2022-12-10T12:11:55;1.10;99.90
29211;DHT22;16250;49.932;10.980;2022-12-10T12:14:33;1.20;99.90
29211;DHT22;16250;49.932;10.980;2022-12-10T12:20:17;1.40;99.90
29211;DHT22;16250;49.932;10.980;2022-12-10T12:22:47;1.50;99.90
29211;DHT22;16250;49.932;10.980;2022-12-10T12:25:26;1.50;99.90
29211;DHT22;16250;49.932;10.980;2022-12-10T12:28:12;1.50;99.90
29211;DHT22;16250;49.932;10.980;2022-12-10T12:30:41;1.50;99.90
29211;DHT22;16250;49.932;10.980;2022-12-10T12:35:55;1.30;99.90
29211;DHT22;16250;49.932;10.980;2022-12-10T12:38:30;1.40;99.90
29211;DHT22;16250;49.932;10.980;2022-12-10T12:44:26;1.20;99.90
29211;DHT22;16250;49.932;10.980;2022-12-10T12:46:56;1.20;99.90
29211;DHT22;16250;49.932;10.980;2022-12-10T12:49:28;1.10;99.90
29211;DHT22;16250;49.932;10.980;2022-12-10T12:54:33;1.00;99.90
29211;DHT22;16250;49.932;10.980;2022-12-10T12:59:58;0.90;99.90
29211;DHT22;16250;49.932;10.980;2022-12-10T13:05:33;0.70;99.90
29211;DHT22;16250;49.932;10.980;2022-12-10T13:13:32;0.50;99.90
29211;DHT22;16250;49.932;10.980;2022-12-10T13:27:15;0.50;99.90
29211;DHT22;16250;49.932;10.980;2022-12-10T13:34:36;0.50;99.90
29211;DHT22;16250;49.932;10.980;2022-12-10T13:37:06;0.40;99.90
29211;DHT22;16250;49.932;10.980;2022-12-10T13:39:59;0.50;99.90
29211;DHT22;16250;49.932;10.980;2022-12-10T13:42:29;0.60;99.90
29211;DHT22;16250;49.932;10.980;2022-12-10T13:51:11;0.60;99.90
29211;DHT22;16250;49.932;10.980;2022-12-10T13:54:14;0.50;99.90
29211;DHT22;16250;49.932;10.980;2022-12-10T14:07:56;0.50;99.90
29211;DHT22;16250;49.932;10.980;2022-12-10T14:10:29;0.40;99.90
29211;DHT22;16250;49.932;10.980;2022-12-10T14:12:55;0.40;99.90
29211;DHT22;16250;49.932;10.980;2022-12-10T14:15:23;0.40;99.90
29211;DHT22;16250;49.932;10.980;2022-12-10T14:17:51;0.50;99.90
29211;DHT22;16250;49.932;10.980;2022-12-10T14:20:21;0.50;99.90
29211;DHT22;16250;49.932;10.980;2022-12-10T14:22:53;0.40;99.90
29211;DHT22;16250;49.932;10.980;2022-12-10T14:25:44;0.30;99.90
29211;DHT22;16250;49.932;10.980;2022-12-10T14:28:14;0.30;99.90
29211;DHT22;16250;49.932;10.980;2022-12-10T14:30:43;0.20;99.90
29211;DHT22;16250;49.932;10.980;2022-12-10T14:33:12;0.20;99.90
29211;DHT22;16250;49.932;10.980;2022-12-10T14:35:40;0.20;99.90
29211;DHT22;16250;49.932;10.980;2022-12-10T14:38:06;0.20;99.90
29211;DHT22;16250;49.932;10.980;2022-12-10T14:40:41;0.20;99.90
29211;DHT22;16250;49.932;10.980;2022-12-10T14:43:30;0.20;99.90
29211;DHT22;16250;49.932;10.980;2022-12-10T14:45:59;0.20;99.90
29211;DHT22;16250;49.932;10.980;2022-12-10T14:48:26;0.20;99.90
29211;DHT22;16250;49.932;10.980;2022-12-10T14:50:52;0.20;99.90
29211;DHT22;16250;49.932;10.980;2022-12-10T14:53:22;0.10;99.90
29211;DHT22;16250;49.932;10.980;2022-12-10T14:55:52;0.20;99.90
29211;DHT22;16250;49.932;10.980;2022-12-10T14:58:30;0.20;99.90
29211;DHT22;16250;49.932;10.980;2022-12-10T15:00:58;0.10;99.90
29211;DHT22;16250;49.932;10.980;2022-12-10T15:03:38;0.20;99.90
29211;DHT22;16250;49.932;10.980;2022-12-10T15:06:08;0.20;99.90
29211;DHT22;16250;49.932;10.980;2022-12-10T15:08:34;0.10;99.90
29211;DHT22;16250;49.932;10.980;2022-12-10T15:11:01;0.10;99.90
29211;DHT22;16250;49.932;10.980;2022-12-10T15:13:37;0.10;99.90
29211;DHT22;16250;49.932;10.980;2022-12-10T15:16:04;0.00;99.90
29211;DHT22;16250;49.932;10.980;2022-12-10T15:18:37;0.00;99.90
29211;DHT22;16250;49.932;10.980;2022-12-10T15:23:39;0.10;99.90
29211;DHT22;16250;49.932;10.980;2022-12-10T15:26:23;0.00;99.90
29211;DHT22;16250;49.932;10.980;2022-12-10T15:28:51;0.10;99.90
29211;DHT22;16250;49.932;10.980;2022-12-10T15:33:59;0.00;99.90
29211;DHT22;16250;49.932;10.980;2022-12-10T15:36:48;0.00;99.90
29211;DHT22;16250;49.932;10.980;2022-12-10T15:39:28;0.00;99.90
29211;DHT22;16250;49.932;10.980;2022-12-10T15:41:55;0.00;99.90
29211;DHT22;16250;49.932;10.980;2022-12-10T15:47:16;-0.10;99.90
29211;DHT22;16250;49.932;10.980;2022-12-10T15:49:43;-0.10;99.90
29211;DHT22;16250;49.932;10.980;2022-12-10T15:52:28;-0.10;99.90
29211;DHT22;16250;49.932;10.980;2022-12-10T15:54:55;-0.10;99.90
29211;DHT22;16250;49.932;10.980;2022-12-10T15:59:52;-0.10;99.90
29211;DHT22;16250;49.932;10.980;2022-12-10T16:04:47;-0.20;99.90
29211;DHT22;16250;49.932;10.980;2022-12-10T16:07:13;-0.10;99.90
29211;DHT22;16250;49.932;10.980;2022-12-10T16:09:41;-0.10;99.90
29211;DHT22;16250;49.932;10.980;2022-12-10T16:12:12;-0.10;99.90
29211;DHT22;16250;49.932;10.980;2022-12-10T16:14:39;-0.20;99.90
29211;DHT22;16250;49.932;10.980;2022-12-10T16:17:06;-0.10;99.90
29211;DHT22;16250;49.932;10.980;2022-12-10T16:19:32;-0.10;99.90
29211;DHT22;16250;49.932;10.980;2022-12-10T16:21:57;-0.10;99.90
29211;DHT22;16250;49.932;10.980;2022-12-10T16:24:23;-0.10;99.90
29211;DHT22;16250;49.932;10.980;2022-12-10T16:26:48;-0.20;99.90
29211;DHT22;16250;49.932;10.980;2022-12-10T16:29:14;-0.10;99.90
29211;DHT22;16250;49.932;10.980;2022-12-10T16:31:41;-0.20;99.90
29211;DHT22;16250;49.932;10.980;2022-12-10T16:34:06;-0.20;99.90
29211;DHT22;16250;49.932;10.980;2022-12-10T16:36:32;-0.20;99.90
29211;DHT22;16250;49.932;10.980;2022-12-10T16:38:58;-0.20;99.90
29211;DHT22;16250;49.932;10.980;2022-12-10T16:41:24;-0.10;99.90
29211;DHT22;16250;49.932;10.980;2022-12-10T16:43:50;-0.20;99.90
29211;DHT22;16250;49.932;10.980;2022-12-10T16:46:15;-0.10;99.90
29211;DHT22;16250;49.932;10.980;2022-12-10T16:48:41;-0.10;99.90
29211;DHT22;16250;49.932;10.980;2022-12-10T16:51:18;-0.20;99.90
29211;DHT22;16250;49.932;10.980;2022-12-10T16:53:46;-0.20;99.90
29211;DHT22;16250;49.932;10.980;2022-12-10T16:56:13;-0.20;99.90
29211;DHT22;16250;49.932;10.980;2022-12-10T16:58:40;-0.10;99.90
29211;DHT22;16250;49.932;10.980;2022-12-10T17:01:25;-0.20;99.90
29211;DHT22;16250;49.932;10.980;2022-12-10T17:03:53;-0.20;99.90
29211;DHT22;16250;49.932;10.980;2022-12-10T17:06:19;-0.30;99.90
29211;DHT22;16250;49.932;10.980;2022-12-10T17:08:45;-0.30;99.90
29211;DHT22;16250;49.932;10.980;2022-12-10T17:11:17;-0.40;99.90
29211;DHT22;16250;49.932;10.980;2022-12-10T17:14:02;-0.40;99.90
29211;DHT22;16250;49.932;10.980;2022-12-10T17:16:28;-0.40;99.90
29211;DHT22;16250;49.932;10.980;2022-12-10T17:18:53;-0.40;99.90
29211;DHT22;16250;49.932;10.980;2022-12-10T17:21:19;-0.40;99.90
29211;DHT22;16250;49.932;10.980;2022-12-10T17:23:45;-0.40;99.90
29211;DHT22;16250;49.932;10.980;2022-12-10T17:26:21;-0.40;99.90
29211;DHT22;16250;49.932;10.980;2022-12-10T17:28:47;-0.50;99.90
29211;DHT22;16250;49.932;10.980;2022-12-10T17:31:13;-0.40;99.90
29211;DHT22;16250;49.932;10.980;2022-12-10T17:33:38;-0.40;99.90
29211;DHT22;16250;49.932;10.980;2022-12-10T17:36:04;-0.40;99.90
29211;DHT22;16250;49.932;10.980;2022-12-10T17:38:31;-0.40;99.90
29211;DHT22;16250;49.932;10.980;2022-12-10T17:40:56;-0.40;99.90
29211;DHT22;16250;49.932;10.980;2022-12-10T17:43:22;-0.50;99.90
29211;DHT22;16250;49.932;10.980;2022-12-10T17:45:48;-0.50;99.90
29211;DHT22;16250;49.932;10.980;2022-12-10T17:48:15;-0.60;99.90